createdAt,value
2018-02-05T00:01:32.034Z,81.73
2018-02-05T00:03:59.429Z,82.01
2018-02-05T00:06:26.830Z,81.87
2018-02-05T00:08:54.264Z,81.65
2018-02-05T00:11:21.709Z,81.61
2018-02-05T00:13:49.112Z,81.72
2018-02-05T00:16:16.534Z,81.89
2018-02-05T00:18:43.931Z,81.94
2018-02-05T00:21:11.313Z,81.72
2018-02-05T00:23:38.741Z,82.11
2018-02-05T00:26:06.126Z,81.89
2018-02-05T00:28:33.523Z,81.90
2018-02-05T00:31:00.915Z,82.05
2018-02-05T00:33:28.320Z,81.76
2018-02-05T00:35:55.780Z,81.45
2018-02-05T00:38:23.225Z,81.83
2018-02-05T00:40:50.610Z,81.38
2018-02-05T00:43:18.007Z,81.29
2018-02-05T00:45:45.411Z,81.10
2018-02-05T00:48:12.808Z,80.82
2018-02-05T00:50:40.186Z,81.09
2018-02-05T00:53:07.593Z,81.44
2018-02-05T00:55:34.981Z,81.59
2018-02-05T00:58:02.462Z,81.29
2018-02-05T01:00:29.933Z,81.04
2018-02-05T01:02:57.315Z,80.79
2018-02-05T01:05:24.710Z,81.00
2018-02-05T01:07:52.096Z,81.27
2018-02-05T01:10:19.543Z,81.22
2018-02-05T01:12:46.935Z,81.01
2018-02-05T01:15:14.318Z,80.90
2018-02-05T01:17:41.698Z,80.79
2018-02-05T01:20:09.090Z,80.95
2018-02-05T01:22:36.519Z,80.73
2018-02-05T01:25:03.974Z,80.77
2018-02-05T01:27:31.368Z,80.37
2018-02-05T01:29:58.765Z,80.80
2018-02-05T01:32:26.152Z,81.24
2018-02-05T01:34:53.552Z,81.31
2018-02-05T01:37:20.946Z,81.24
2018-02-05T01:39:48.419Z,80.94
2018-02-05T01:42:15.806Z,80.82
2018-02-05T01:44:43.323Z,80.54
2018-02-05T01:47:10.706Z,80.67
2018-02-05T01:49:38.110Z,80.63
2018-02-05T01:52:05.511Z,80.17
2018-02-05T01:54:32.919Z,80.06
2018-02-05T01:57:00.315Z,80.08
2018-02-05T01:59:27.694Z,80.00
2018-02-05T02:01:55.207Z,80.12
2018-02-05T02:04:22.658Z,79.77
2018-02-05T02:06:50.062Z,79.47
2018-02-05T02:09:17.486Z,79.14
2018-02-05T02:11:44.878Z,79.25
2018-02-05T02:14:12.270Z,79.83
2018-02-05T02:16:39.740Z,79.11
2018-02-05T02:19:07.126Z,79.32
2018-02-05T02:21:34.536Z,79.58
2018-02-05T02:24:01.918Z,79.42
2018-02-05T02:26:29.318Z,79.11
2018-02-05T02:28:56.707Z,79.48
2018-02-05T02:31:24.110Z,79.17
2018-02-05T02:33:51.506Z,79.38
2018-02-05T02:36:18.910Z,79.22
2018-02-05T02:38:46.351Z,79.63
2018-02-05T02:41:13.751Z,79.72
2018-02-05T02:43:41.247Z,79.92
2018-02-05T02:46:08.643Z,80.18
2018-02-05T02:48:36.031Z,79.93
2018-02-05T02:51:03.418Z,79.74
2018-02-05T02:53:30.815Z,79.79
2018-02-05T02:55:58.241Z,79.68
2018-02-05T02:58:25.670Z,79.56
2018-02-05T03:00:53.058Z,79.05
2018-02-05T03:03:20.498Z,79.52
2018-02-05T03:05:47.877Z,79.07
2018-02-05T03:08:15.276Z,79.22
2018-02-05T03:10:42.751Z,79.42
2018-02-05T03:13:10.145Z,79.58
2018-02-05T03:15:37.559Z,79.39
2018-02-05T03:18:04.963Z,79.15
2018-02-05T03:20:32.342Z,79.36
2018-02-05T03:22:59.824Z,79.44
2018-02-05T03:25:27.214Z,79.21
2018-02-05T03:27:54.634Z,79.29
2018-02-05T03:30:22.027Z,79.38
2018-02-05T03:32:49.432Z,79.36
2018-02-05T03:35:16.818Z,79.43
2018-02-05T03:37:44.194Z,79.77
2018-02-05T03:40:11.605Z,79.83
2018-02-05T03:42:39.004Z,79.36
2018-02-05T03:45:06.383Z,79.28
2018-02-05T03:47:33.880Z,79.34
2018-02-05T03:50:01.307Z,79.55
2018-02-05T03:52:28.751Z,79.39
2018-02-05T03:54:56.154Z,79.43
2018-02-05T03:57:23.586Z,78.99
2018-02-05T03:59:51.046Z,79.54
2018-02-05T04:02:18.893Z,79.43
2018-02-05T04:04:46.374Z,79.77
2018-02-05T04:07:15.549Z,79.71
2018-02-05T04:09:42.946Z,79.80
2018-02-05T04:12:10.378Z,79.83
2018-02-05T04:14:37.774Z,80.16
2018-02-05T04:17:06.001Z,80.34
2018-02-05T04:19:33.382Z,80.77
2018-02-05T04:22:00.775Z,80.93
2018-02-05T04:24:28.236Z,80.80
2018-02-05T04:26:55.610Z,80.56
2018-02-05T04:29:23.022Z,80.30
2018-02-05T04:31:50.434Z,79.93
2018-02-05T04:34:17.831Z,79.95
2018-02-05T04:36:45.227Z,79.53
2018-02-05T04:39:12.610Z,79.79
2018-02-05T04:41:40.059Z,79.76
2018-02-05T04:44:07.445Z,79.69
2018-02-05T04:46:34.866Z,79.60
2018-02-05T04:49:02.262Z,79.88
2018-02-05T04:51:29.664Z,79.48
2018-02-05T04:53:57.357Z,79.70
2018-02-05T04:56:24.747Z,79.84
2018-02-05T04:58:52.129Z,80.16
2018-02-05T05:01:19.602Z,80.19
2018-02-05T05:03:47.068Z,80.20
2018-02-05T05:06:14.471Z,80.62
2018-02-05T05:08:41.869Z,80.42
2018-02-05T05:11:09.255Z,80.28
2018-02-05T05:13:36.655Z,80.75
2018-02-05T05:16:04.052Z,80.61
2018-02-05T05:18:31.506Z,80.56
2018-02-05T05:20:58.894Z,80.52
2018-02-05T05:23:26.300Z,80.58
2018-02-05T05:25:53.674Z,81.02
2018-02-05T05:28:21.080Z,81.38
2018-02-05T05:30:48.462Z,81.29
2018-02-05T05:33:15.855Z,81.29
2018-02-05T05:35:43.250Z,81.17
2018-02-05T05:38:10.650Z,81.29
2018-02-05T05:40:38.048Z,81.50
2018-02-05T05:43:05.544Z,81.59
2018-02-05T05:45:32.926Z,81.72
2018-02-05T05:48:00.321Z,82.05
2018-02-05T05:50:27.707Z,82.26
2018-02-05T05:52:55.097Z,82.61
2018-02-05T05:55:22.485Z,82.61
2018-02-05T05:57:49.887Z,82.24
2018-02-05T06:00:17.275Z,82.30
2018-02-05T06:02:44.680Z,81.92
2018-02-05T06:05:12.073Z,81.81
2018-02-05T06:07:39.509Z,81.64
2018-02-05T06:10:06.850Z,81.72
2018-02-05T06:12:34.303Z,81.79
2018-02-05T06:15:01.717Z,82.06
2018-02-05T06:17:29.114Z,82.13
2018-02-05T06:19:56.501Z,82.01
2018-02-05T06:22:23.927Z,82.16
2018-02-05T06:24:51.309Z,81.98
2018-02-05T06:27:18.700Z,81.59
2018-02-05T06:29:46.092Z,81.37
2018-02-05T06:32:13.479Z,81.46
2018-02-05T06:34:40.899Z,81.55
2018-02-05T06:37:08.295Z,81.03
2018-02-05T06:39:35.686Z,81.02
2018-02-05T06:42:03.168Z,80.92
2018-02-05T06:44:30.561Z,80.57
2018-02-05T06:46:57.971Z,80.89
2018-02-05T06:49:25.359Z,80.54
2018-02-05T06:52:04.676Z,81.02
2018-02-05T06:54:43.807Z,81.50
2018-02-05T06:57:11.194Z,81.58
2018-02-05T06:59:38.589Z,81.66
2018-02-05T07:02:05.979Z,81.64
2018-02-05T07:04:33.414Z,81.43
2018-02-05T07:07:00.793Z,80.81
2018-02-05T07:09:28.195Z,81.21
2018-02-05T07:11:55.582Z,80.76
2018-02-05T07:14:22.973Z,80.45
2018-02-05T07:16:50.354Z,80.20
2018-02-05T07:19:17.738Z,80.48
2018-02-05T07:21:45.135Z,80.95
2018-02-05T07:24:12.518Z,80.82
2018-02-05T07:26:39.918Z,80.86
2018-02-05T07:29:07.307Z,80.20
2018-02-05T07:31:34.706Z,79.78
2018-02-05T07:34:02.091Z,79.70
2018-02-05T07:36:29.484Z,79.15
2018-02-05T07:38:56.977Z,79.33
2018-02-05T07:41:24.362Z,79.05
2018-02-05T07:43:51.787Z,79.39
2018-02-05T07:46:19.177Z,80.08
2018-02-05T07:48:46.560Z,80.14
2018-02-05T07:51:14.054Z,79.45
2018-02-05T07:53:41.439Z,79.49
2018-02-05T07:56:08.870Z,79.29
2018-02-05T07:58:36.259Z,79.67
2018-02-05T08:01:03.659Z,79.91
2018-02-05T08:03:31.042Z,80.06
2018-02-05T08:05:58.426Z,79.70
2018-02-05T08:08:25.819Z,79.27
2018-02-05T08:10:53.294Z,78.81
2018-02-05T08:13:20.709Z,78.71
2018-02-05T08:15:48.094Z,78.23
2018-02-05T08:18:15.482Z,78.83
2018-02-05T08:20:42.867Z,79.57
2018-02-05T08:23:10.270Z,79.53
2018-02-05T08:25:37.718Z,79.76
2018-02-05T08:28:05.182Z,78.89
2018-02-05T08:30:32.639Z,78.47
2018-02-05T08:33:00.026Z,78.42
2018-02-05T08:35:27.415Z,78.69
2018-02-05T08:37:54.812Z,79.05
2018-02-05T08:40:22.200Z,78.00
2018-02-05T08:42:49.590Z,78.25
2018-02-05T08:45:16.965Z,77.94
2018-02-05T08:47:44.346Z,77.09
2018-02-05T08:50:11.773Z,76.76
2018-02-05T08:52:39.171Z,77.70
2018-02-05T08:55:06.554Z,77.30
2018-02-05T08:57:34.042Z,77.65
2018-02-05T09:00:01.433Z,77.57
2018-02-05T09:02:28.853Z,77.03
2018-02-05T09:04:56.251Z,75.94
2018-02-05T09:07:23.661Z,76.24
2018-02-05T09:09:51.119Z,76.21
2018-02-05T09:12:18.499Z,76.05
2018-02-05T09:14:45.895Z,75.81
2018-02-05T09:17:13.398Z,75.82
2018-02-05T09:19:40.833Z,76.15
2018-02-05T09:22:08.213Z,76.00
2018-02-05T09:24:35.590Z,76.19
2018-02-05T09:27:02.987Z,76.23
2018-02-05T09:29:30.373Z,75.87
2018-02-05T09:31:57.767Z,75.17
2018-02-05T09:34:25.163Z,75.08
2018-02-05T09:36:52.552Z,74.59
2018-02-05T09:39:19.940Z,73.52
2018-02-05T09:41:47.341Z,73.03
2018-02-05T09:44:14.788Z,72.88
2018-02-05T09:46:42.178Z,72.47
2018-02-05T09:49:09.587Z,72.67
2018-02-05T09:51:37.002Z,73.56
2018-02-05T09:54:04.406Z,72.68
2018-02-05T09:56:31.797Z,72.61
2018-02-05T09:58:59.192Z,73.15
2018-02-05T10:01:26.582Z,72.75
2018-02-05T10:03:53.965Z,73.29
2018-02-05T10:06:21.361Z,72.52
2018-02-05T10:08:48.761Z,72.50
2018-02-05T10:11:16.192Z,71.92
2018-02-05T10:13:43.543Z,71.10
2018-02-05T10:16:10.944Z,71.59
2018-02-05T10:18:38.328Z,71.03
2018-02-05T10:21:05.807Z,71.09
2018-02-05T10:23:33.270Z,70.91
2018-02-05T10:26:00.675Z,71.05
2018-02-05T10:28:28.067Z,70.72
2018-02-05T10:30:55.466Z,71.21
2018-02-05T10:33:22.854Z,70.77
2018-02-05T10:35:50.242Z,71.63
2018-02-05T10:38:17.642Z,71.68
2018-02-05T10:40:45.030Z,71.61
2018-02-05T10:43:12.512Z,71.97
2018-02-05T10:45:39.965Z,72.50
2018-02-05T10:48:07.361Z,70.88
2018-02-05T10:50:34.745Z,71.88
2018-02-05T10:53:02.138Z,72.55
2018-02-05T10:55:29.585Z,72.29
2018-02-05T10:57:56.982Z,71.98
2018-02-05T11:00:24.366Z,71.71
2018-02-05T11:02:51.766Z,72.24
2018-02-05T11:05:19.146Z,71.80
2018-02-05T11:07:46.547Z,71.60
2018-02-05T11:10:13.928Z,71.55
2018-02-05T11:12:41.323Z,71.50
2018-02-05T11:15:08.738Z,70.34
2018-02-05T11:17:36.134Z,70.70
2018-02-05T11:20:03.522Z,70.40
2018-02-05T11:22:30.908Z,70.49
2018-02-05T11:24:58.305Z,71.83
2018-02-05T11:27:25.739Z,72.30
2018-02-05T11:29:53.126Z,71.78
2018-02-05T11:32:20.506Z,70.05
2018-02-05T11:34:47.902Z,69.42
2018-02-05T11:37:15.290Z,68.20
2018-02-05T11:39:42.673Z,68.68
2018-02-05T11:42:10.054Z,68.89
2018-02-05T11:44:37.454Z,68.90
2018-02-05T11:47:04.938Z,68.16
2018-02-05T11:49:32.334Z,68.76
2018-02-05T11:51:59.718Z,68.28
2018-02-05T11:54:27.210Z,68.77
2018-02-05T11:56:54.663Z,67.92
2018-02-05T11:59:22.064Z,67.92
2018-02-05T12:01:49.477Z,67.67
2018-02-05T12:04:16.933Z,68.67
2018-02-05T12:06:44.379Z,67.74
2018-02-05T12:09:11.761Z,68.46
2018-02-05T12:11:39.166Z,67.88
2018-02-05T12:14:06.582Z,68.20
2018-02-05T12:16:33.978Z,68.94
2018-02-05T12:19:01.368Z,67.79
2018-02-05T12:21:28.758Z,68.21
2018-02-05T12:23:56.144Z,67.33
2018-02-05T12:26:23.543Z,69.50
2018-02-05T12:28:51.210Z,68.45
2018-02-05T12:31:18.606Z,68.96
2018-02-05T12:33:45.992Z,69.05
2018-02-05T12:36:13.543Z,69.45
2018-02-05T12:38:40.919Z,69.59
2018-02-05T12:41:08.315Z,70.05
2018-02-05T12:43:35.714Z,69.89
2018-02-05T12:46:03.105Z,69.74
2018-02-05T12:48:30.491Z,67.84
2018-02-05T12:50:57.896Z,69.66
2018-02-05T12:53:25.272Z,68.47
2018-02-05T12:55:52.654Z,69.24
2018-02-05T12:58:20.043Z,68.51
2018-02-05T13:04:09.934Z,70.27
2018-02-05T13:06:42.202Z,69.44
2018-02-05T13:09:09.671Z,69.54
2018-02-05T13:11:37.058Z,69.14
2018-02-05T13:14:04.493Z,70.54
2018-02-05T13:16:31.833Z,70.85
2018-02-05T13:18:59.218Z,70.43
2018-02-05T13:21:27.410Z,70.73
2018-02-05T13:23:54.804Z,70.25
2018-02-05T13:26:22.202Z,69.99
2018-02-05T13:28:49.591Z,70.99
2018-02-05T13:31:17.087Z,71.01
2018-02-05T13:33:44.490Z,71.22
2018-02-05T13:36:11.891Z,70.48
2018-02-05T13:38:39.278Z,70.65
2018-02-05T13:41:06.667Z,70.93
2018-02-05T13:43:34.053Z,71.34
2018-02-05T13:46:02.255Z,71.01
2018-02-05T13:48:30.558Z,71.20
2018-02-05T13:50:57.967Z,71.23
2018-02-05T13:53:25.441Z,71.60
2018-02-05T13:55:52.866Z,71.49
2018-02-05T13:58:20.262Z,70.23
2018-02-05T14:00:47.647Z,69.80
2018-02-05T14:03:15.038Z,70.06
2018-02-05T14:05:42.426Z,69.63
2018-02-05T14:08:09.817Z,69.93
2018-02-05T14:10:37.198Z,69.87
2018-02-05T14:13:04.587Z,69.64
2018-02-05T14:15:31.974Z,69.47
2018-02-05T14:17:59.368Z,69.65
2018-02-05T14:20:26.758Z,69.38
2018-02-05T14:22:54.183Z,68.31
2018-02-05T14:25:21.568Z,67.81
2018-02-05T14:27:48.945Z,67.61
2018-02-05T14:30:16.442Z,66.78
2018-02-05T14:32:43.834Z,65.68
2018-02-05T14:35:11.238Z,65.90
2018-02-05T14:37:38.623Z,65.43
2018-02-05T14:40:06.014Z,64.74
2018-02-05T14:42:33.410Z,64.68
2018-02-05T14:45:00.790Z,63.84
2018-02-05T14:47:28.174Z,65.55
2018-02-05T14:49:55.596Z,64.79
2018-02-05T14:52:22.982Z,64.27
2018-02-05T14:54:50.383Z,63.68
2018-02-05T14:57:17.770Z,64.05
2018-02-05T14:59:45.150Z,62.66
2018-02-05T15:02:12.554Z,62.19
2018-02-05T15:04:39.977Z,63.05
2018-02-05T15:07:07.363Z,63.32
2018-02-05T15:09:34.752Z,63.44
2018-02-05T15:12:02.154Z,63.71
2018-02-05T15:14:29.550Z,63.62
2018-02-05T15:16:57.595Z,64.15
2018-02-05T15:19:25.058Z,64.60
2018-02-05T15:21:52.514Z,63.98
2018-02-05T15:24:19.898Z,64.62
2018-02-05T15:26:47.303Z,64.18
2018-02-05T15:29:14.778Z,64.85
2018-02-05T15:31:42.234Z,64.23
2018-02-05T15:34:09.616Z,64.07
2018-02-05T15:36:37.020Z,63.90
2018-02-05T15:39:04.394Z,63.55
2018-02-05T15:41:31.838Z,63.11
2018-02-05T15:43:59.238Z,63.17
2018-02-05T15:46:26.665Z,64.11
2018-02-05T15:48:54.066Z,62.76
2018-02-05T15:51:21.448Z,63.23
2018-02-05T15:53:48.834Z,62.25
2018-02-05T15:56:16.222Z,62.04
2018-02-05T15:58:43.626Z,61.69
2018-02-05T16:01:11.027Z,62.05
2018-02-05T16:03:38.415Z,62.20
2018-02-05T16:06:05.807Z,63.12
2018-02-05T16:08:33.227Z,63.50
2018-02-05T16:11:00.622Z,63.05
2018-02-05T16:13:28.072Z,63.34
2018-02-05T16:15:55.446Z,62.79
2018-02-05T16:18:22.888Z,62.82
2018-02-05T16:20:50.270Z,62.80
2018-02-05T16:23:17.664Z,63.31
2018-02-05T16:25:45.046Z,63.13
2018-02-05T16:28:12.502Z,63.28
2018-02-05T16:30:39.886Z,63.60
2018-02-05T16:33:07.266Z,63.82
2018-02-05T16:35:34.649Z,63.98
2018-02-05T16:38:02.039Z,63.78
2018-02-05T16:40:29.427Z,64.55
2018-02-05T16:42:56.814Z,64.39
2018-02-05T16:45:24.199Z,64.64
2018-02-05T16:47:51.584Z,65.02
2018-02-05T16:50:18.974Z,65.47
2018-02-05T16:52:46.456Z,66.18
2018-02-05T16:55:13.855Z,66.08
2018-02-05T16:57:41.233Z,66.75
2018-02-05T17:00:08.630Z,67.24
2018-02-05T17:02:36.013Z,68.10
2018-02-05T17:05:03.426Z,68.51
2018-02-05T17:07:30.810Z,68.28
2018-02-05T17:09:58.235Z,68.39
2018-02-05T17:12:25.694Z,68.01
2018-02-05T17:14:53.140Z,68.26
2018-02-05T17:17:20.519Z,68.34
2018-02-05T17:19:47.910Z,68.41
2018-02-05T17:22:15.302Z,68.67
2018-02-05T17:24:42.680Z,69.01
2018-02-05T17:27:10.067Z,69.27
2018-02-05T17:29:37.441Z,69.14
2018-02-05T17:32:04.839Z,69.06
2018-02-05T17:34:32.225Z,69.07
2018-02-05T17:36:59.910Z,69.55
2018-02-05T17:39:27.380Z,69.43
2018-02-05T17:41:54.826Z,69.40
2018-02-05T17:44:22.216Z,69.96
2018-02-05T17:46:49.638Z,70.02
2018-02-05T17:49:17.030Z,69.97
2018-02-05T17:51:44.446Z,69.82
2018-02-05T17:54:11.831Z,69.93
2018-02-05T17:56:39.249Z,69.82
2018-02-05T17:59:06.705Z,68.74
2018-02-05T18:01:34.162Z,68.52
2018-02-05T18:04:01.566Z,68.37
2018-02-05T18:06:28.958Z,68.25
2018-02-05T18:08:56.347Z,68.46
2018-02-05T18:11:23.868Z,68.47
2018-02-05T18:13:51.382Z,68.81
2018-02-05T18:16:18.806Z,68.68
2018-02-05T18:18:46.198Z,69.05
2018-02-05T18:21:13.629Z,69.89
2018-02-05T18:23:41.001Z,69.83
2018-02-05T18:26:08.386Z,70.06
2018-02-05T18:28:35.769Z,69.48
2018-02-05T18:31:03.158Z,69.12
2018-02-05T18:33:30.546Z,69.52
2018-02-05T18:35:57.930Z,70.36
2018-02-05T18:38:25.406Z,70.80
2018-02-05T18:40:52.842Z,71.04
2018-02-05T18:43:20.322Z,71.57
2018-02-05T18:45:47.698Z,71.82
2018-02-05T18:48:15.095Z,72.04
2018-02-05T18:50:42.478Z,71.73
2018-02-05T18:53:09.934Z,71.80
2018-02-05T18:55:37.327Z,72.67
2018-02-05T18:58:04.726Z,73.03
2018-02-05T19:00:44.134Z,72.96
2018-02-05T19:03:11.582Z,73.92
2018-02-05T19:05:38.962Z,74.60
2018-02-05T19:08:06.453Z,74.85
2018-02-05T19:10:33.847Z,74.69
2018-02-05T19:13:01.239Z,75.13
2018-02-05T19:15:28.715Z,74.91
2018-02-05T19:17:56.107Z,74.37
2018-02-05T19:20:23.531Z,74.42
2018-02-05T19:22:51.003Z,74.05
2018-02-05T19:25:18.370Z,74.52
2018-02-05T19:27:45.751Z,74.77
2018-02-05T19:30:13.142Z,74.89
2018-02-05T19:32:40.570Z,75.17
2018-02-05T19:35:08.034Z,75.59
2018-02-05T19:37:35.458Z,75.86
2018-02-05T19:40:02.870Z,75.96
2018-02-05T19:42:30.257Z,75.82
2018-02-05T19:44:57.635Z,75.83
2018-02-05T19:47:25.022Z,75.60
2018-02-05T19:49:52.494Z,75.57
2018-02-05T19:52:19.878Z,75.71
2018-02-05T19:54:47.268Z,75.87
2018-02-05T19:57:14.659Z,75.95
2018-02-05T19:59:42.034Z,76.16
2018-02-05T20:02:09.428Z,76.26
2018-02-05T20:04:36.922Z,76.54
2018-02-05T20:07:04.313Z,76.39
2018-02-05T20:09:31.702Z,76.71
2018-02-05T20:11:59.877Z,76.95
2018-02-05T20:14:27.359Z,77.02
2018-02-05T20:16:54.750Z,76.78
2018-02-05T20:19:22.125Z,76.73
2018-02-05T20:21:49.524Z,76.84
2018-02-05T20:24:16.996Z,76.99
2018-02-05T20:26:44.367Z,77.18
2018-02-05T20:29:11.750Z,77.41
2018-02-05T20:31:39.149Z,77.55
2018-02-05T20:34:06.542Z,77.36
2018-02-05T20:36:34.070Z,77.61
2018-02-05T20:39:01.450Z,77.56
2018-02-05T20:41:28.838Z,77.92
2018-02-05T20:43:56.234Z,77.49
2018-02-05T20:46:23.614Z,76.95
2018-02-05T20:48:51.019Z,77.04
2018-02-05T20:51:18.400Z,76.57
2018-02-05T20:53:45.778Z,76.57
2018-02-05T20:56:13.173Z,76.46
2018-02-05T20:58:40.550Z,76.68
2018-02-05T21:01:07.942Z,76.66
2018-02-05T21:03:35.341Z,76.17
2018-02-05T21:06:02.818Z,75.23
2018-02-05T21:08:30.215Z,74.78
2018-02-05T21:10:57.635Z,74.85
2018-02-05T21:13:25.030Z,74.17
2018-02-05T21:15:52.407Z,73.91
2018-02-05T21:18:19.807Z,74.22
2018-02-05T21:20:47.195Z,74.77
2018-02-05T21:23:14.585Z,75.19
2018-02-05T21:25:42.004Z,75.31
2018-02-05T21:28:09.410Z,74.97
2018-02-05T21:30:36.798Z,76.13
2018-02-05T21:33:04.197Z,76.56
2018-02-05T21:35:31.578Z,75.90
2018-02-05T21:37:58.975Z,76.16
2018-02-05T21:40:26.358Z,76.93
2018-02-05T21:42:53.753Z,77.05
2018-02-05T21:45:21.141Z,77.22
2018-02-05T21:47:48.530Z,76.99
2018-02-05T21:50:15.920Z,78.17
2018-02-05T21:52:43.354Z,78.36
2018-02-05T21:55:10.749Z,78.32
2018-02-05T21:57:38.189Z,78.20
2018-02-05T22:00:05.635Z,78.43
2018-02-05T22:02:33.030Z,78.39
2018-02-05T22:05:00.472Z,78.02
2018-02-05T22:07:27.903Z,77.73
2018-02-05T22:09:55.294Z,77.82
2018-02-05T22:12:22.690Z,77.96
2018-02-05T22:14:50.094Z,77.50
2018-02-05T22:17:17.481Z,77.48
2018-02-05T22:19:44.862Z,77.29
2018-02-05T22:22:12.376Z,77.66
2018-02-05T22:24:39.766Z,77.82
2018-02-05T22:27:07.178Z,78.08
2018-02-05T22:29:34.662Z,77.73
2018-02-05T22:32:02.043Z,77.66
2018-02-05T22:34:29.466Z,78.51
2018-02-05T22:36:56.930Z,78.61
2018-02-05T22:39:24.326Z,78.19
2018-02-05T22:41:51.707Z,77.49
2018-02-05T22:44:19.103Z,78.60
2018-02-05T22:46:46.495Z,79.23
2018-02-05T22:49:13.881Z,78.52
2018-02-05T22:51:41.299Z,77.68
2018-02-05T22:54:08.667Z,78.22
2018-02-05T22:56:36.058Z,78.33
2018-02-05T22:59:03.446Z,78.28
2018-02-05T23:01:30.891Z,78.00
2018-02-05T23:03:58.279Z,78.01
2018-02-05T23:06:25.667Z,78.40
2018-02-05T23:08:53.072Z,78.72
2018-02-05T23:11:20.489Z,78.47
2018-02-05T23:13:47.882Z,78.52
2018-02-05T23:16:15.302Z,79.08
2018-02-05T23:18:42.694Z,78.99
2018-02-05T23:21:10.119Z,79.14
2018-02-05T23:23:37.510Z,79.73
2018-02-05T23:26:04.891Z,79.86
2018-02-05T23:28:32.382Z,80.22
2018-02-05T23:30:59.762Z,80.27
2018-02-05T23:33:27.153Z,80.22
2018-02-05T23:35:54.547Z,80.58
2018-02-05T23:38:21.998Z,80.84
2018-02-05T23:40:49.382Z,80.79
2018-02-05T23:43:16.777Z,80.85
2018-02-05T23:45:44.169Z,80.70
2018-02-05T23:48:11.558Z,80.95
2018-02-05T23:50:38.950Z,80.59
2018-02-05T23:53:06.337Z,80.15
2018-02-05T23:55:33.738Z,79.81
2018-02-05T23:58:01.147Z,79.65
